sensor_id;sensor_type;location;lat;lon;timestamp;temperature;humidity
4695;DHT22;2361;49.540;8.390;2023-03-19T00:00:34;13.20;99.90
4695;DHT22;2361;49.540;8.390;2023-03-19T00:03:01;13.10;99.90
4695;DHT22;2361;49.540;8.390;2023-03-19T00:05:28;13.00;99.90
4695;DHT22;2361;49.540;8.390;2023-03-19T00:07:55;13.00;99.90
4695;DHT22;2361;49.540;8.390;2023-03-19T00:10:22;12.90;99.90
4695;DHT22;2361;49.540;8.390;2023-03-19T00:12:49;12.90;99.90
4695;DHT22;2361;49.540;8.390;2023-03-19T00:15:16;12.90;99.90
4695;DHT22;2361;49.540;8.390;2023-03-19T00:17:43;12.90;99.90
4695;DHT22;2361;49.540;8.390;2023-03-19T00:20:11;12.90;99.90
4695;DHT22;2361;49.540;8.390;2023-03-19T00:22:40;12.90;99.90
4695;DHT22;2361;49.540;8.390;2023-03-19T00:25:08;12.90;99.90
4695;DHT22;2361;49.540;8.390;2023-03-19T00:27:36;12.90;99.90
4695;DHT22;2361;49.540;8.390;2023-03-19T00:30:05;12.90;99.90
4695;DHT22;2361;49.540;8.390;2023-03-19T00:32:33;12.80;99.90
4695;DHT22;2361;49.540;8.390;2023-03-19T00:35:03;12.80;99.90
4695;DHT22;2361;49.540;8.390;2023-03-19T00:37:32;12.80;99.90
4695;DHT22;2361;49.540;8.390;2023-03-19T00:40:00;12.70;99.90
4695;DHT22;2361;49.540;8.390;2023-03-19T00:42:27;12.70;99.90
4695;DHT22;2361;49.540;8.390;2023-03-19T00:44:54;12.60;99.90
4695;DHT22;2361;49.540;8.390;2023-03-19T00:47:23;12.70;99.90
4695;DHT22;2361;49.540;8.390;2023-03-19T00:49:50;12.70;99.90
4695;DHT22;2361;49.540;8.390;2023-03-19T00:52:17;12.70;99.90
4695;DHT22;2361;49.540;8.390;2023-03-19T00:54:44;12.70;99.90
4695;DHT22;2361;49.540;8.390;2023-03-19T00:57:11;12.70;99.90
4695;DHT22;2361;49.540;8.390;2023-03-19T00:59:38;12.70;99.90
4695;DHT22;2361;49.540;8.390;2023-03-19T01:02:05;12.80;99.90
4695;DHT22;2361;49.540;8.390;2023-03-19T01:04:32;12.70;99.90
4695;DHT22;2361;49.540;8.390;2023-03-19T01:06:59;12.70;99.90
4695;DHT22;2361;49.540;8.390;2023-03-19T01:09:25;12.70;99.90
4695;DHT22;2361;49.540;8.390;2023-03-19T01:11:52;12.70;99.90
4695;DHT22;2361;49.540;8.390;2023-03-19T01:14:20;12.70;99.90
4695;DHT22;2361;49.540;8.390;2023-03-19T01:16:47;12.70;99.90
4695;DHT22;2361;49.540;8.390;2023-03-19T01:19:15;12.70;99.90
4695;DHT22;2361;49.540;8.390;2023-03-19T01:21:42;12.60;99.90
4695;DHT22;2361;49.540;8.390;2023-03-19T01:24:12;12.60;99.90
4695;DHT22;2361;49.540;8.390;2023-03-19T01:26:39;12.60;99.90
4695;DHT22;2361;49.540;8.390;2023-03-19T01:29:06;12.60;99.90
4695;DHT22;2361;49.540;8.390;2023-03-19T01:31:34;12.70;99.90
4695;DHT22;2361;49.540;8.390;2023-03-19T01:34:03;12.60;99.90
4695;DHT22;2361;49.540;8.390;2023-03-19T01:36:30;12.60;99.90
4695;DHT22;2361;49.540;8.390;2023-03-19T01:38:57;12.50;99.90
4695;DHT22;2361;49.540;8.390;2023-03-19T01:41:24;12.50;99.90
4695;DHT22;2361;49.540;8.390;2023-03-19T01:43:51;12.50;99.90
4695;DHT22;2361;49.540;8.390;2023-03-19T01:46:39;12.50;99.90
4695;DHT22;2361;49.540;8.390;2023-03-19T01:49:07;12.50;99.90
4695;DHT22;2361;49.540;8.390;2023-03-19T01:51:37;12.40;99.90
4695;DHT22;2361;49.540;8.390;2023-03-19T01:54:10;12.40;99.90
4695;DHT22;2361;49.540;8.390;2023-03-19T01:56:41;12.40;99.90
4695;DHT22;2361;49.540;8.390;2023-03-19T01:59:17;12.30;99.90
4695;DHT22;2361;49.540;8.390;2023-03-19T02:02:00;12.30;99.90
4695;DHT22;2361;49.540;8.390;2023-03-19T02:04:31;12.20;99.90
4695;DHT22;2361;49.540;8.390;2023-03-19T02:07:00;12.20;99.90
4695;DHT22;2361;49.540;8.390;2023-03-19T02:09:28;12.20;99.90
4695;DHT22;2361;49.540;8.390;2023-03-19T02:11:56;12.20;99.90
4695;DHT22;2361;49.540;8.390;2023-03-19T02:14:23;12.10;99.90
4695;DHT22;2361;49.540;8.390;2023-03-19T02:16:50;12.10;99.90
4695;DHT22;2361;49.540;8.390;2023-03-19T02:20:06;12.10;99.90
4695;DHT22;2361;49.540;8.390;2023-03-19T02:22:19;12.10;99.90
4695;DHT22;2361;49.540;8.390;2023-03-19T02:25:23;12.10;99.90
4695;DHT22;2361;49.540;8.390;2023-03-19T02:28:17;12.00;99.90
4695;DHT22;2361;49.540;8.390;2023-03-19T02:30:45;12.00;99.90
4695;DHT22;2361;49.540;8.390;2023-03-19T02:33:13;12.00;99.90
4695;DHT22;2361;49.540;8.390;2023-03-19T02:35:45;12.00;99.90
4695;DHT22;2361;49.540;8.390;2023-03-19T02:38:13;11.90;99.90
4695;DHT22;2361;49.540;8.390;2023-03-19T02:40:47;11.90;99.90
4695;DHT22;2361;49.540;8.390;2023-03-19T02:43:18;11.80;99.90
4695;DHT22;2361;49.540;8.390;2023-03-19T02:45:46;11.80;99.90
4695;DHT22;2361;49.540;8.390;2023-03-19T02:48:13;11.80;99.90
4695;DHT22;2361;49.540;8.390;2023-03-19T02:50:40;11.80;99.90
4695;DHT22;2361;49.540;8.390;2023-03-19T02:53:07;11.80;99.90
4695;DHT22;2361;49.540;8.390;2023-03-19T02:55:35;11.80;99.90
4695;DHT22;2361;49.540;8.390;2023-03-19T02:58:02;11.90;99.90
4695;DHT22;2361;49.540;8.390;2023-03-19T03:00:29;11.90;99.90
4695;DHT22;2361;49.540;8.390;2023-03-19T03:02:57;11.90;99.90
4695;DHT22;2361;49.540;8.390;2023-03-19T03:05:24;12.00;99.90
4695;DHT22;2361;49.540;8.390;2023-03-19T03:07:51;12.00;99.90
4695;DHT22;2361;49.540;8.390;2023-03-19T03:10:19;12.00;99.90
4695;DHT22;2361;49.540;8.390;2023-03-19T03:12:46;12.00;99.90
4695;DHT22;2361;49.540;8.390;2023-03-19T03:15:13;12.00;99.90
4695;DHT22;2361;49.540;8.390;2023-03-19T03:17:42;12.10;99.90
4695;DHT22;2361;49.540;8.390;2023-03-19T03:20:12;12.10;99.90
4695;DHT22;2361;49.540;8.390;2023-03-19T03:22:40;12.10;99.90
4695;DHT22;2361;49.540;8.390;2023-03-19T03:25:08;12.10;99.90
4695;DHT22;2361;49.540;8.390;2023-03-19T03:27:36;12.10;99.90
4695;DHT22;2361;49.540;8.390;2023-03-19T03:30:05;12.10;99.90
4695;DHT22;2361;49.540;8.390;2023-03-19T03:32:37;12.10;99.90
4695;DHT22;2361;49.540;8.390;2023-03-19T03:35:05;12.00;99.90
4695;DHT22;2361;49.540;8.390;2023-03-19T03:37:35;12.00;99.90
4695;DHT22;2361;49.540;8.390;2023-03-19T03:40:03;12.00;99.90
4695;DHT22;2361;49.540;8.390;2023-03-19T03:42:32;11.90;99.90
4695;DHT22;2361;49.540;8.390;2023-03-19T03:44:59;11.90;99.90
4695;DHT22;2361;49.540;8.390;2023-03-19T03:47:26;11.90;99.90
4695;DHT22;2361;49.540;8.390;2023-03-19T03:49:53;11.80;99.90
4695;DHT22;2361;49.540;8.390;2023-03-19T03:52:21;11.80;99.90
4695;DHT22;2361;49.540;8.390;2023-03-19T03:54:48;11.80;99.90
4695;DHT22;2361;49.540;8.390;2023-03-19T03:57:15;11.80;99.90
4695;DHT22;2361;49.540;8.390;2023-03-19T03:59:42;11.80;99.90
4695;DHT22;2361;49.540;8.390;2023-03-19T04:02:09;11.80;99.90
4695;DHT22;2361;49.540;8.390;2023-03-19T04:04:36;11.80;99.90
4695;DHT22;2361;49.540;8.390;2023-03-19T04:07:03;11.80;99.90
4695;DHT22;2361;49.540;8.390;2023-03-19T04:09:30;11.80;99.90
4695;DHT22;2361;49.540;8.390;2023-03-19T04:11:56;11.80;99.90
4695;DHT22;2361;49.540;8.390;2023-03-19T04:14:23;11.80;99.90
4695;DHT22;2361;49.540;8.390;2023-03-19T04:16:50;11.80;99.90
4695;DHT22;2361;49.540;8.390;2023-03-19T04:19:17;11.90;99.90
4695;DHT22;2361;49.540;8.390;2023-03-19T04:21:44;11.90;99.90
4695;DHT22;2361;49.540;8.390;2023-03-19T04:24:12;11.90;99.90
4695;DHT22;2361;49.540;8.390;2023-03-19T04:26:39;11.90;99.90
4695;DHT22;2361;49.540;8.390;2023-03-19T04:29:07;11.90;99.90
4695;DHT22;2361;49.540;8.390;2023-03-19T04:31:34;11.90;99.90
4695;DHT22;2361;49.540;8.390;2023-03-19T04:34:01;11.80;99.90
4695;DHT22;2361;49.540;8.390;2023-03-19T04:36:28;11.80;99.90
4695;DHT22;2361;49.540;8.390;2023-03-19T04:38:55;11.80;99.90
4695;DHT22;2361;49.540;8.390;2023-03-19T04:41:22;11.80;99.90
4695;DHT22;2361;49.540;8.390;2023-03-19T04:43:49;11.80;99.90
4695;DHT22;2361;49.540;8.390;2023-03-19T04:46:16;11.80;99.90
4695;DHT22;2361;49.540;8.390;2023-03-19T04:48:43;11.80;99.90
4695;DHT22;2361;49.540;8.390;2023-03-19T04:51:10;11.90;99.90
4695;DHT22;2361;49.540;8.390;2023-03-19T04:53:38;11.90;99.90
4695;DHT22;2361;49.540;8.390;2023-03-19T04:56:06;11.90;99.90
4695;DHT22;2361;49.540;8.390;2023-03-19T04:58:33;11.90;99.90
4695;DHT22;2361;49.540;8.390;2023-03-19T05:01:00;11.90;99.90
4695;DHT22;2361;49.540;8.390;2023-03-19T05:03:27;11.90;99.90
4695;DHT22;2361;49.540;8.390;2023-03-19T05:05:54;11.80;99.90
4695;DHT22;2361;49.540;8.390;2023-03-19T05:08:21;11.70;99.90
4695;DHT22;2361;49.540;8.390;2023-03-19T05:10:48;11.60;99.90
4695;DHT22;2361;49.540;8.390;2023-03-19T05:13:15;11.60;99.90
4695;DHT22;2361;49.540;8.390;2023-03-19T05:15:44;11.50;99.90
4695;DHT22;2361;49.540;8.390;2023-03-19T05:18:11;11.50;99.90
4695;DHT22;2361;49.540;8.390;2023-03-19T05:20:39;11.50;99.90
4695;DHT22;2361;49.540;8.390;2023-03-19T05:23:06;11.50;99.90
4695;DHT22;2361;49.540;8.390;2023-03-19T05:25:33;11.50;99.90
4695;DHT22;2361;49.540;8.390;2023-03-19T05:28:04;11.50;99.90
4695;DHT22;2361;49.540;8.390;2023-03-19T05:30:31;11.50;99.90
4695;DHT22;2361;49.540;8.390;2023-03-19T05:32:59;11.50;99.90
4695;DHT22;2361;49.540;8.390;2023-03-19T05:35:28;11.60;99.90
4695;DHT22;2361;49.540;8.390;2023-03-19T05:37:56;11.60;99.90
4695;DHT22;2361;49.540;8.390;2023-03-19T05:40:23;11.60;99.90
4695;DHT22;2361;49.540;8.390;2023-03-19T05:42:50;11.70;99.90
4695;DHT22;2361;49.540;8.390;2023-03-19T05:45:17;11.70;99.90
4695;DHT22;2361;49.540;8.390;2023-03-19T05:47:48;11.70;99.90
4695;DHT22;2361;49.540;8.390;2023-03-19T05:50:16;11.80;99.90
4695;DHT22;2361;49.540;8.390;2023-03-19T05:52:44;11.80;99.90
4695;DHT22;2361;49.540;8.390;2023-03-19T05:55:11;11.90;99.90
4695;DHT22;2361;49.540;8.390;2023-03-19T05:57:38;11.90;99.90
4695;DHT22;2361;49.540;8.390;2023-03-19T06:00:06;11.90;99.90
4695;DHT22;2361;49.540;8.390;2023-03-19T06:02:34;11.90;99.90
4695;DHT22;2361;49.540;8.390;2023-03-19T06:05:02;12.00;99.90
4695;DHT22;2361;49.540;8.390;2023-03-19T06:07:30;12.00;99.90
4695;DHT22;2361;49.540;8.390;2023-03-19T06:09:57;12.00;99.90
4695;DHT22;2361;49.540;8.390;2023-03-19T06:12:24;12.00;99.90
4695;DHT22;2361;49.540;8.390;2023-03-19T06:14:51;12.10;99.90
4695;DHT22;2361;49.540;8.390;2023-03-19T06:17:18;12.10;99.90
4695;DHT22;2361;49.540;8.390;2023-03-19T06:19:45;12.10;99.90
4695;DHT22;2361;49.540;8.390;2023-03-19T06:22:12;12.00;99.90
4695;DHT22;2361;49.540;8.390;2023-03-19T06:24:39;12.00;99.90
4695;DHT22;2361;49.540;8.390;2023-03-19T06:27:06;12.00;99.90
4695;DHT22;2361;49.540;8.390;2023-03-19T06:29:33;11.90;99.90
4695;DHT22;2361;49.540;8.390;2023-03-19T06:32:00;12.00;99.90
4695;DHT22;2361;49.540;8.390;2023-03-19T06:34:28;12.00;99.90
4695;DHT22;2361;49.540;8.390;2023-03-19T06:36:55;12.10;99.90
4695;DHT22;2361;49.540;8.390;2023-03-19T06:39:22;12.10;99.90
4695;DHT22;2361;49.540;8.390;2023-03-19T06:41:49;12.20;99.90
4695;DHT22;2361;49.540;8.390;2023-03-19T06:44:16;12.20;99.90
4695;DHT22;2361;49.540;8.390;2023-03-19T06:46:43;12.20;99.90
4695;DHT22;2361;49.540;8.390;2023-03-19T06:49:10;12.30;99.90
4695;DHT22;2361;49.540;8.390;2023-03-19T06:51:37;12.30;99.90
4695;DHT22;2361;49.540;8.390;2023-03-19T06:54:04;12.30;99.90
4695;DHT22;2361;49.540;8.390;2023-03-19T06:56:32;12.30;99.90
4695;DHT22;2361;49.540;8.390;2023-03-19T06:58:59;12.40;99.90
4695;DHT22;2361;49.540;8.390;2023-03-19T07:01:26;12.40;99.90
4695;DHT22;2361;49.540;8.390;2023-03-19T07:03:53;12.50;99.90
4695;DHT22;2361;49.540;8.390;2023-03-19T07:09:06;12.70;99.90
4695;DHT22;2361;49.540;8.390;2023-03-19T07:11:33;12.70;99.90
4695;DHT22;2361;49.540;8.390;2023-03-19T07:14:02;12.70;99.90
4695;DHT22;2361;49.540;8.390;2023-03-19T07:16:29;12.70;99.90
4695;DHT22;2361;49.540;8.390;2023-03-19T07:18:56;12.80;99.90
4695;DHT22;2361;49.540;8.390;2023-03-19T07:21:23;12.80;99.90
4695;DHT22;2361;49.540;8.390;2023-03-19T07:23:50;12.80;99.90
4695;DHT22;2361;49.540;8.390;2023-03-19T07:26:17;12.80;99.90
4695;DHT22;2361;49.540;8.390;2023-03-19T07:28:44;12.80;99.90
4695;DHT22;2361;49.540;8.390;2023-03-19T07:31:11;12.80;99.90
4695;DHT22;2361;49.540;8.390;2023-03-19T07:33:38;12.70;99.90
4695;DHT22;2361;49.540;8.390;2023-03-19T07:36:06;12.70;99.90
4695;DHT22;2361;49.540;8.390;2023-03-19T07:38:33;12.70;99.90
4695;DHT22;2361;49.540;8.390;2023-03-19T07:41:00;12.70;99.90
4695;DHT22;2361;49.540;8.390;2023-03-19T07:43:29;12.70;99.90
4695;DHT22;2361;49.540;8.390;2023-03-19T07:45:57;12.70;99.90
4695;DHT22;2361;49.540;8.390;2023-03-19T07:48:25;12.70;99.90
4695;DHT22;2361;49.540;8.390;2023-03-19T07:50:52;12.80;99.90
4695;DHT22;2361;49.540;8.390;2023-03-19T07:53:19;12.80;99.90
4695;DHT22;2361;49.540;8.390;2023-03-19T07:55:47;12.90;99.90
4695;DHT22;2361;49.540;8.390;2023-03-19T07:58:14;12.90;99.90
4695;DHT22;2361;49.540;8.390;2023-03-19T08:00:42;13.00;99.90
4695;DHT22;2361;49.540;8.390;2023-03-19T08:03:10;13.00;99.90
4695;DHT22;2361;49.540;8.390;2023-03-19T08:05:38;13.20;99.90
4695;DHT22;2361;49.540;8.390;2023-03-19T08:08:05;13.20;99.90
4695;DHT22;2361;49.540;8.390;2023-03-19T08:10:32;13.30;99.90
4695;DHT22;2361;49.540;8.390;2023-03-19T08:13:02;13.30;99.90
4695;DHT22;2361;49.540;8.390;2023-03-19T08:15:30;13.50;99.90
4695;DHT22;2361;49.540;8.390;2023-03-19T08:18:03;13.60;99.90
4695;DHT22;2361;49.540;8.390;2023-03-19T08:20:31;13.80;99.90
4695;DHT22;2361;49.540;8.390;2023-03-19T08:22:59;13.90;99.90
4695;DHT22;2361;49.540;8.390;2023-03-19T08:25:26;14.10;99.90
4695;DHT22;2361;49.540;8.390;2023-03-19T08:27:59;14.20;99.90
4695;DHT22;2361;49.540;8.390;2023-03-19T08:30:26;14.40;99.90
4695;DHT22;2361;49.540;8.390;2023-03-19T08:32:53;14.60;99.90
4695;DHT22;2361;49.540;8.390;2023-03-19T08:35:21;14.80;99.90
4695;DHT22;2361;49.540;8.390;2023-03-19T08:37:48;15.10;99.90
4695;DHT22;2361;49.540;8.390;2023-03-19T08:40:15;15.30;99.90
4695;DHT22;2361;49.540;8.390;2023-03-19T08:42:42;15.50;99.90
4695;DHT22;2361;49.540;8.390;2023-03-19T08:45:12;15.80;99.90
4695;DHT22;2361;49.540;8.390;2023-03-19T08:47:40;16.10;99.90
4695;DHT22;2361;49.540;8.390;2023-03-19T08:50:09;16.30;99.90
4695;DHT22;2361;49.540;8.390;2023-03-19T08:52:36;16.60;99.90
4695;DHT22;2361;49.540;8.390;2023-03-19T08:55:04;16.80;99.90
4695;DHT22;2361;49.540;8.390;2023-03-19T08:57:31;17.00;99.90
4695;DHT22;2361;49.540;8.390;2023-03-19T08:59:58;17.30;99.90
4695;DHT22;2361;49.540;8.390;2023-03-19T09:02:25;17.90;99.90
4695;DHT22;2361;49.540;8.390;2023-03-19T09:04:53;18.50;98.50
4695;DHT22;2361;49.540;8.390;2023-03-19T09:07:20;19.00;97.30
4695;DHT22;2361;49.540;8.390;2023-03-19T09:09:47;19.10;96.20
4695;DHT22;2361;49.540;8.390;2023-03-19T09:12:15;19.10;95.60
4695;DHT22;2361;49.540;8.390;2023-03-19T09:14:44;19.10;95.50
4695;DHT22;2361;49.540;8.390;2023-03-19T09:17:11;19.60;94.90
4695;DHT22;2361;49.540;8.390;2023-03-19T09:19:39;19.90;93.70
4695;DHT22;2361;49.540;8.390;2023-03-19T09:22:07;20.10;92.70
4695;DHT22;2361;49.540;8.390;2023-03-19T09:24:34;20.50;91.10
4695;DHT22;2361;49.540;8.390;2023-03-19T09:27:01;20.90;90.50
4695;DHT22;2361;49.540;8.390;2023-03-19T09:29:28;21.90;85.80
4695;DHT22;2361;49.540;8.390;2023-03-19T09:31:55;22.60;82.50
4695;DHT22;2361;49.540;8.390;2023-03-19T09:34:22;23.90;78.40
4695;DHT22;2361;49.540;8.390;2023-03-19T09:36:49;25.20;72.80
4695;DHT22;2361;49.540;8.390;2023-03-19T09:39:16;26.40;68.50
4695;DHT22;2361;49.540;8.390;2023-03-19T09:44:37;27.60;60.40
4695;DHT22;2361;49.540;8.390;2023-03-19T09:50:05;26.90;56.50
4695;DHT22;2361;49.540;8.390;2023-03-19T09:52:48;25.70;58.40
4695;DHT22;2361;49.540;8.390;2023-03-19T09:58:14;24.50;58.70
4695;DHT22;2361;49.540;8.390;2023-03-19T10:00:48;23.00;61.40
4695;DHT22;2361;49.540;8.390;2023-03-19T10:06:14;21.60;64.50
4695;DHT22;2361;49.540;8.390;2023-03-19T10:17:56;24.50;61.20
4695;DHT22;2361;49.540;8.390;2023-03-19T10:20:32;28.70;56.10
4695;DHT22;2361;49.540;8.390;2023-03-19T10:25:56;32.90;48.00
4695;DHT22;2361;49.540;8.390;2023-03-19T10:28:27;33.40;46.20
4695;DHT22;2361;49.540;8.390;2023-03-19T10:33:53;34.60;43.70
4695;DHT22;2361;49.540;8.390;2023-03-19T10:36:32;35.10;42.30
4695;DHT22;2361;49.540;8.390;2023-03-19T10:39:01;35.20;42.00
4695;DHT22;2361;49.540;8.390;2023-03-19T10:41:48;34.60;42.40
4695;DHT22;2361;49.540;8.390;2023-03-19T10:44:30;32.70;43.30
4695;DHT22;2361;49.540;8.390;2023-03-19T10:47:03;30.30;45.20
4695;DHT22;2361;49.540;8.390;2023-03-19T10:49:36;28.30;46.70
4695;DHT22;2361;49.540;8.390;2023-03-19T10:52:04;26.80;48.40
4695;DHT22;2361;49.540;8.390;2023-03-19T10:54:32;25.70;50.00
4695;DHT22;2361;49.540;8.390;2023-03-19T10:57:17;24.50;51.80
4695;DHT22;2361;49.540;8.390;2023-03-19T10:59:50;23.70;52.40
4695;DHT22;2361;49.540;8.390;2023-03-19T11:02:20;22.70;53.50
4695;DHT22;2361;49.540;8.390;2023-03-19T11:05:06;22.00;54.40
4695;DHT22;2361;49.540;8.390;2023-03-19T11:07:50;21.50;55.60
4695;DHT22;2361;49.540;8.390;2023-03-19T11:10:24;21.00;56.50
4695;DHT22;2361;49.540;8.390;2023-03-19T11:12:57;20.60;56.60
4695;DHT22;2361;49.540;8.390;2023-03-19T11:15:31;20.30;57.30
4695;DHT22;2361;49.540;8.390;2023-03-19T11:18:27;20.30;58.30
4695;DHT22;2361;49.540;8.390;2023-03-19T11:20:56;20.40;58.90
4695;DHT22;2361;49.540;8.390;2023-03-19T11:23:29;20.50;58.30
4695;DHT22;2361;49.540;8.390;2023-03-19T11:26:00;20.30;58.70
4695;DHT22;2361;49.540;8.390;2023-03-19T11:28:27;20.20;58.50
4695;DHT22;2361;49.540;8.390;2023-03-19T11:31:14;20.20;58.70
4695;DHT22;2361;49.540;8.390;2023-03-19T11:42:59;19.30;60.60
4695;DHT22;2361;49.540;8.390;2023-03-19T11:51:51;18.30;62.60
4695;DHT22;2361;49.540;8.390;2023-03-19T11:54:34;18.20;63.60
4695;DHT22;2361;49.540;8.390;2023-03-19T11:57:50;18.10;64.10
4695;DHT22;2361;49.540;8.390;2023-03-19T12:00:55;18.00;64.70
4695;DHT22;2361;49.540;8.390;2023-03-19T12:03:54;18.00;65.10
4695;DHT22;2361;49.540;8.390;2023-03-19T12:06:39;17.90;65.50
4695;DHT22;2361;49.540;8.390;2023-03-19T12:09:42;18.00;66.00
4695;DHT22;2361;49.540;8.390;2023-03-19T12:18:03;18.20;66.80
4695;DHT22;2361;49.540;8.390;2023-03-19T12:26:04;18.00;68.40
4695;DHT22;2361;49.540;8.390;2023-03-19T12:31:53;17.80;69.20
4695;DHT22;2361;49.540;8.390;2023-03-19T12:34:37;17.80;70.70
4695;DHT22;2361;49.540;8.390;2023-03-19T12:37:41;17.80;72.40
4695;DHT22;2361;49.540;8.390;2023-03-19T12:40:26;17.70;75.30
4695;DHT22;2361;49.540;8.390;2023-03-19T12:43:34;17.60;80.70
4695;DHT22;2361;49.540;8.390;2023-03-19T12:46:33;17.60;86.50
4695;DHT22;2361;49.540;8.390;2023-03-19T12:49:16;17.50;92.00
4695;DHT22;2361;49.540;8.390;2023-03-19T12:52:20;17.30;95.00
4695;DHT22;2361;49.540;8.390;2023-03-19T12:55:19;17.10;97.20
4695;DHT22;2361;49.540;8.390;2023-03-19T12:57:52;16.90;98.70
4695;DHT22;2361;49.540;8.390;2023-03-19T13:06:09;16.80;99.90
4695;DHT22;2361;49.540;8.390;2023-03-19T13:08:49;16.70;99.90
4695;DHT22;2361;49.540;8.390;2023-03-19T13:14:20;16.50;99.90
4695;DHT22;2361;49.540;8.390;2023-03-19T13:19:26;16.20;99.90
4695;DHT22;2361;49.540;8.390;2023-03-19T13:22:03;16.10;99.90
4695;DHT22;2361;49.540;8.390;2023-03-19T13:24:41;15.80;99.90
4695;DHT22;2361;49.540;8.390;2023-03-19T13:27:31;15.70;99.90
4695;DHT22;2361;49.540;8.390;2023-03-19T13:30:16;15.60;99.90
4695;DHT22;2361;49.540;8.390;2023-03-19T13:32:50;15.40;99.90
4695;DHT22;2361;49.540;8.390;2023-03-19T13:35:44;15.30;99.90
4695;DHT22;2361;49.540;8.390;2023-03-19T13:38:42;15.20;99.90
4695;DHT22;2361;49.540;8.390;2023-03-19T13:44:31;15.20;99.90
4695;DHT22;2361;49.540;8.390;2023-03-19T13:47:02;15.20;99.90
4695;DHT22;2361;49.540;8.390;2023-03-19T13:55:29;15.10;99.90
4695;DHT22;2361;49.540;8.390;2023-03-19T14:01:04;15.20;99.90
4695;DHT22;2361;49.540;8.390;2023-03-19T14:03:40;15.30;99.90
4695;DHT22;2361;49.540;8.390;2023-03-19T14:06:40;15.30;99.90
4695;DHT22;2361;49.540;8.390;2023-03-19T14:09:48;15.40;99.90
4695;DHT22;2361;49.540;8.390;2023-03-19T14:12:42;15.50;99.90
4695;DHT22;2361;49.540;8.390;2023-03-19T14:29:01;15.50;99.90
4695;DHT22;2361;49.540;8.390;2023-03-19T14:31:49;15.60;99.90
4695;DHT22;2361;49.540;8.390;2023-03-19T14:37:03;15.90;99.90
4695;DHT22;2361;49.540;8.390;2023-03-19T14:40:23;15.90;99.90
4695;DHT22;2361;49.540;8.390;2023-03-19T14:42:59;16.00;99.90
4695;DHT22;2361;49.540;8.390;2023-03-19T14:51:52;16.20;99.90
4695;DHT22;2361;49.540;8.390;2023-03-19T14:57:28;16.40;99.90
4695;DHT22;2361;49.540;8.390;2023-03-19T14:59:58;16.50;99.90
4695;DHT22;2361;49.540;8.390;2023-03-19T15:02:38;16.60;99.90
4695;DHT22;2361;49.540;8.390;2023-03-19T15:05:09;16.60;99.90
4695;DHT22;2361;49.540;8.390;2023-03-19T15:07:46;16.70;99.90
4695;DHT22;2361;49.540;8.390;2023-03-19T15:10:20;16.70;99.90
4695;DHT22;2361;49.540;8.390;2023-03-19T15:16:17;16.70;99.90
4695;DHT22;2361;49.540;8.390;2023-03-19T15:18:58;16.70;99.90
4695;DHT22;2361;49.540;8.390;2023-03-19T15:21:28;16.80;99.90
4695;DHT22;2361;49.540;8.390;2023-03-19T15:23:56;16.70;99.90
4695;DHT22;2361;49.540;8.390;2023-03-19T15:26:31;16.70;99.90
4695;DHT22;2361;49.540;8.390;2023-03-19T15:29:00;16.80;99.90
4695;DHT22;2361;49.540;8.390;2023-03-19T15:31:47;16.80;99.90
4695;DHT22;2361;49.540;8.390;2023-03-19T15:34:29;16.90;99.90
4695;DHT22;2361;49.540;8.390;2023-03-19T15:37:06;16.90;99.90
4695;DHT22;2361;49.540;8.390;2023-03-19T15:39:46;16.90;99.90
4695;DHT22;2361;49.540;8.390;2023-03-19T15:42:16;17.00;99.90
4695;DHT22;2361;49.540;8.390;2023-03-19T15:44:49;17.00;99.90
4695;DHT22;2361;49.540;8.390;2023-03-19T15:47:25;17.00;99.90
4695;DHT22;2361;49.540;8.390;2023-03-19T15:50:03;17.00;99.90
4695;DHT22;2361;49.540;8.390;2023-03-19T15:52:38;17.00;99.90
4695;DHT22;2361;49.540;8.390;2023-03-19T15:55:07;17.00;99.90
4695;DHT22;2361;49.540;8.390;2023-03-19T15:57:36;17.00;99.90
4695;DHT22;2361;49.540;8.390;2023-03-19T16:00:07;17.00;99.90
4695;DHT22;2361;49.540;8.390;2023-03-19T16:02:43;16.90;99.90
4695;DHT22;2361;49.540;8.390;2023-03-19T16:05:27;16.80;99.90
4695;DHT22;2361;49.540;8.390;2023-03-19T16:10:37;16.60;99.90
4695;DHT22;2361;49.540;8.390;2023-03-19T16:13:25;16.50;99.90
4695;DHT22;2361;49.540;8.390;2023-03-19T16:16:01;16.30;99.90
4695;DHT22;2361;49.540;8.390;2023-03-19T16:18:51;16.30;99.90
4695;DHT22;2361;49.540;8.390;2023-03-19T16:21:22;16.20;99.90
4695;DHT22;2361;49.540;8.390;2023-03-19T16:24:01;16.00;99.90
4695;DHT22;2361;49.540;8.390;2023-03-19T16:26:44;15.90;99.90
4695;DHT22;2361;49.540;8.390;2023-03-19T16:29:30;15.80;99.90
4695;DHT22;2361;49.540;8.390;2023-03-19T16:32:22;15.80;99.90
4695;DHT22;2361;49.540;8.390;2023-03-19T16:35:05;15.80;99.90
4695;DHT22;2361;49.540;8.390;2023-03-19T16:37:42;15.80;99.90
4695;DHT22;2361;49.540;8.390;2023-03-19T16:42:43;15.60;99.90
4695;DHT22;2361;49.540;8.390;2023-03-19T16:47:42;15.60;99.90
4695;DHT22;2361;49.540;8.390;2023-03-19T16:50:14;15.60;99.90
4695;DHT22;2361;49.540;8.390;2023-03-19T16:52:44;15.60;99.90
4695;DHT22;2361;49.540;8.390;2023-03-19T16:55:25;15.50;99.90
4695;DHT22;2361;49.540;8.390;2023-03-19T16:57:56;15.50;99.90
4695;DHT22;2361;49.540;8.390;2023-03-19T17:00:26;15.50;99.90
4695;DHT22;2361;49.540;8.390;2023-03-19T17:02:57;15.40;99.90
4695;DHT22;2361;49.540;8.390;2023-03-19T17:05:26;15.40;99.90
4695;DHT22;2361;49.540;8.390;2023-03-19T17:07:54;15.40;99.90
4695;DHT22;2361;49.540;8.390;2023-03-19T17:10:24;15.20;99.90
4695;DHT22;2361;49.540;8.390;2023-03-19T17:12:54;15.00;99.90
4695;DHT22;2361;49.540;8.390;2023-03-19T17:15:35;14.90;99.90
4695;DHT22;2361;49.540;8.390;2023-03-19T17:18:12;14.80;99.90
4695;DHT22;2361;49.540;8.390;2023-03-19T17:23:36;14.50;99.90
4695;DHT22;2361;49.540;8.390;2023-03-19T17:26:14;14.50;99.90
4695;DHT22;2361;49.540;8.390;2023-03-19T17:28:43;14.40;99.90
4695;DHT22;2361;49.540;8.390;2023-03-19T17:31:20;14.50;99.90
4695;DHT22;2361;49.540;8.390;2023-03-19T17:33:51;14.40;99.90
4695;DHT22;2361;49.540;8.390;2023-03-19T17:36:18;14.50;99.90
4695;DHT22;2361;49.540;8.390;2023-03-19T17:38:45;14.50;99.90
4695;DHT22;2361;49.540;8.390;2023-03-19T17:41:15;14.50;99.90
4695;DHT22;2361;49.540;8.390;2023-03-19T17:43:44;14.50;99.90
4695;DHT22;2361;49.540;8.390;2023-03-19T17:46:22;14.50;99.90
4695;DHT22;2361;49.540;8.390;2023-03-19T17:48:52;14.40;99.90
4695;DHT22;2361;49.540;8.390;2023-03-19T17:51:22;14.40;99.90
4695;DHT22;2361;49.540;8.390;2023-03-19T17:53:51;14.30;99.90
4695;DHT22;2361;49.540;8.390;2023-03-19T17:56:22;14.30;99.90
4695;DHT22;2361;49.540;8.390;2023-03-19T17:58:51;14.30;99.90
4695;DHT22;2361;49.540;8.390;2023-03-19T18:01:25;14.20;99.90
4695;DHT22;2361;49.540;8.390;2023-03-19T18:03:54;14.20;99.90
4695;DHT22;2361;49.540;8.390;2023-03-19T18:06:25;14.20;99.90
4695;DHT22;2361;49.540;8.390;2023-03-19T18:08:57;14.10;99.90
4695;DHT22;2361;49.540;8.390;2023-03-19T18:11:24;14.10;99.90
4695;DHT22;2361;49.540;8.390;2023-03-19T18:13:51;14.10;99.90
4695;DHT22;2361;49.540;8.390;2023-03-19T18:16:28;14.10;99.90
4695;DHT22;2361;49.540;8.390;2023-03-19T18:18:59;14.10;99.90
4695;DHT22;2361;49.540;8.390;2023-03-19T18:21:28;14.00;99.90
4695;DHT22;2361;49.540;8.390;2023-03-19T18:23:56;14.00;99.90
4695;DHT22;2361;49.540;8.390;2023-03-19T18:26:24;14.00;99.90
4695;DHT22;2361;49.540;8.390;2023-03-19T18:28:51;13.90;99.90
4695;DHT22;2361;49.540;8.390;2023-03-19T18:31:23;13.80;99.90
4695;DHT22;2361;49.540;8.390;2023-03-19T18:33:58;13.80;99.90